Time;durP1;ratioP1;P1;durP2;ratioP2;P2;SDS_P1;SDS_P2;PMS_P1;PMS_P2;Temp;Humidity;BMP_temperature;BMP_pressure;BME280_temperature;BME280_humidity;BME280_pressure;Samples;Min_cycle;Max_cycle;Signal;HPM_P1;HPM_P2
2021/05/09 00:00:56;;;;;;;0.20;0.20;;;;;;;9.33;91.07;100624.63;4848669;29;20072;-81
2021/05/09 00:03:22;;;;;;;0.20;0.20;;;;;;;9.33;90.68;100635.84;4875455;29;20079;-81
2021/05/09 00:05:48;;;;;;;0.20;0.20;;;;;;;9.19;90.81;100623.09;4877378;29;20060;-81
2021/05/09 00:08:14;;;;;;;0.15;0.15;;;;;;;9.25;91.16;100634.78;4907262;29;20118;-81
2021/05/09 00:10:40;;;;;;;0.17;0.17;;;;;;;9.18;91.41;100631.81;4906764;29;20083;-81
2021/05/09 00:13:06;;;;;;;0.13;0.13;;;;;;;9.14;92.13;100624.34;4872397;29;20053;-81
2021/05/09 00:15:31;;;;;;;0.13;0.13;;;;;;;9.04;92.03;100614.66;4893087;29;20055;-81
2021/05/09 00:17:57;;;;;;;0.20;0.20;;;;;;;8.98;91.68;100611.69;4874732;29;20052;-81
2021/05/09 00:20:22;;;;;;;0.20;0.20;;;;;;;9.06;91.63;100637.91;4874591;29;20052;-81
2021/05/09 00:22:48;;;;;;;0.20;0.20;;;;;;;9.06;91.24;100630.13;4875777;29;20040;-81
2021/05/09 00:25:14;;;;;;;0.20;0.20;;;;;;;8.84;91.74;100604.09;4876424;29;20060;-81
2021/05/09 00:27:42;;;;;;;0.20;0.20;;;;;;;9.02;92.89;100626.09;4891668;29;20092;-81
2021/05/09 00:30:09;;;;;;;0.20;0.20;;;;;;;9.01;93.03;100619.25;4874406;29;20048;-81
2021/05/09 00:32:35;;;;;;;0.10;0.10;;;;;;;8.99;91.94;100621.16;4859573;29;20124;-81
2021/05/09 00:35:01;;;;;;;0.20;0.20;;;;;;;8.98;92.08;100617.72;4891948;29;20488;-82
2021/05/09 00:37:26;;;;;;;0.15;0.15;;;;;;;8.91;92.80;100597.50;4876950;29;20052;-81
2021/05/09 00:39:52;;;;;;;0.30;0.30;;;;;;;8.99;92.56;100618.56;4874277;29;20052;-81
2021/05/09 00:42:18;;;;;;;0.20;0.20;;;;;;;9.06;92.97;100623.16;4859682;29;20053;-81
2021/05/09 00:44:44;;;;;;;0.55;0.22;;;;;;;8.94;92.32;100620.63;4887519;29;20163;-81
2021/05/09 00:47:12;;;;;;;0.20;0.20;;;;;;;8.99;92.78;100619.38;4894890;29;20131;-81
2021/05/09 00:49:39;;;;;;;0.20;0.20;;;;;;;9.06;92.99;100625.75;4879295;29;20098;-81
2021/05/09 00:52:10;;;;;;;0.30;0.30;;;;;;;8.94;92.38;100603.28;4893847;29;20051;-81
2021/05/09 00:54:43;;;;;;;0.10;0.10;;;;;;;8.97;92.40;100618.63;4908659;29;20092;-81
2021/05/09 00:57:12;;;;;;;0.20;0.20;;;;;;;8.91;92.99;100611.31;4912514;29;20051;-81
2021/05/09 00:59:39;;;;;;;0.20;0.20;;;;;;;9.04;93.04;100619.03;4879712;29;20617;-81
2021/05/09 01:02:07;;;;;;;0.32;0.30;;;;;;;9.02;93.32;100607.94;4877361;29;21564;-81
2021/05/09 01:04:33;;;;;;;0.20;0.20;;;;;;;8.97;93.27;100607.41;4892136;29;20048;-80
2021/05/09 01:06:59;;;;;;;0.20;0.20;;;;;;;9.09;93.52;100602.16;4896284;29;20349;-81
2021/05/09 01:09:24;;;;;;;0.30;0.30;;;;;;;9.08;92.76;100610.88;4893354;29;20053;-80
2021/05/09 01:11:50;;;;;;;0.20;0.20;;;;;;;8.94;92.68;100594.66;4863094;29;20578;-80
2021/05/09 01:14:16;;;;;;;0.20;0.20;;;;;;;9.07;93.77;100606.63;4893213;29;20051;-80
2021/05/09 01:16:43;;;;;;;0.20;0.20;;;;;;;8.95;93.48;100580.75;4892349;29;20108;-80
2021/05/09 01:19:09;;;;;;;0.20;0.20;;;;;;;9.25;94.37;100596.63;4893411;29;20051;-81
2021/05/09 01:21:35;;;;;;;0.30;0.30;;;;;;;9.23;93.73;100582.09;4863321;29;20063;-81
2021/05/09 01:24:02;;;;;;;0.20;0.20;;;;;;;9.19;92.82;100568.53;4879406;29;20051;-81
2021/05/09 01:26:29;;;;;;;0.20;0.20;;;;;;;9.19;93.42;100570.28;4908683;29;20052;-81
2021/05/09 01:28:55;;;;;;;0.25;0.25;;;;;;;9.33;92.69;100588.22;4895026;29;20035;-80
2021/05/09 01:31:20;;;;;;;0.17;0.17;;;;;;;9.15;92.94;100571.44;4893733;29;20048;-81
2021/05/09 01:33:46;;;;;;;0.30;0.30;;;;;;;9.24;92.81;100575.97;4909485;29;20064;-81
2021/05/09 01:36:12;;;;;;;0.20;0.20;;;;;;;9.22;92.50;100576.06;4878046;29;20048;-80
2021/05/09 01:38:37;;;;;;;0.20;0.20;;;;;;;9.23;93.47;100587.28;4909376;29;20052;-81
2021/05/09 01:41:03;;;;;;;0.20;0.20;;;;;;;9.16;92.51;100584.34;4910311;29;20103;-81
2021/05/09 01:43:35;;;;;;;0.13;0.13;;;;;;;9.02;92.08;100568.97;4890946;29;20127;-81
2021/05/09 01:46:01;;;;;;;0.22;0.22;;;;;;;8.85;92.50;100549.44;4897301;29;20155;-81
2021/05/09 01:48:27;;;;;;;0.15;0.15;;;;;;;8.85;92.71;100559.00;4881720;29;20893;-81
2021/05/09 01:50:53;;;;;;;0.30;0.20;;;;;;;8.85;93.26;100548.63;4898021;29;20047;-81
2021/05/09 01:53:20;;;;;;;0.20;0.20;;;;;;;8.90;93.19;100565.50;4896030;29;20056;-80
2021/05/09 01:55:46;;;;;;;0.20;0.20;;;;;;;8.90;93.75;100559.50;4893063;29;20044;-80
2021/05/09 01:58:21;;;;;;;0.10;0.10;;;;;;;8.88;93.82;100551.81;4911634;29;20044;-80
2021/05/09 02:01:12;;;;;;;0.10;0.10;;;;;;;9.03;94.13;100563.66;4879133;29;20413;-80
2021/05/09 02:03:56;;;;;;;0.20;0.20;;;;;;;9.02;93.54;100559.41;4895740;29;20055;-81
2021/05/09 02:06:24;;;;;;;0.20;0.20;;;;;;;9.05;93.65;100559.16;4896224;29;20495;-82
2021/05/09 02:08:50;;;;;;;0.17;0.17;;;;;;;8.97;92.82;100551.13;4895110;29;20048;-81
2021/05/09 02:11:24;;;;;;;0.30;0.30;;;;;;;9.01;94.00;100543.94;4895681;29;20052;-81
2021/05/09 02:13:53;;;;;;;0.20;0.20;;;;;;;9.09;93.77;100551.97;4912318;29;20491;-81
2021/05/09 02:16:25;;;;;;;0.30;0.30;;;;;;;9.01;93.60;100531.78;4883487;29;20044;-81
2021/05/09 02:18:51;;;;;;;0.25;0.25;;;;;;;9.13;93.34;100543.00;4894841;29;20041;-81
2021/05/09 02:21:18;;;;;;;0.25;0.25;;;;;;;9.22;93.49;100541.47;4896130;29;20479;-81
2021/05/09 02:23:45;;;;;;;0.20;0.20;;;;;;;9.16;92.28;100527.19;4894906;29;20071;-81
2021/05/09 02:26:10;;;;;;;0.20;0.20;;;;;;;9.35;92.35;100555.19;4879496;29;20526;-81
2021/05/09 02:28:36;;;;;;;0.15;0.15;;;;;;;9.31;92.68;100556.34;4896230;29;20045;-81
2021/05/09 02:31:02;;;;;;;0.20;0.20;;;;;;;9.14;92.31;100536.84;4878287;29;20559;-80
2021/05/09 02:33:29;;;;;;;0.20;0.20;;;;;;;9.01;91.91;100520.56;4893456;29;20091;-81
2021/05/09 02:35:55;;;;;;;0.20;0.20;;;;;;;9.16;92.36;100555.78;4891979;29;20035;-80
2021/05/09 02:38:20;;;;;;;0.20;0.20;;;;;;;9.21;92.99;100558.84;4905682;29;20055;-80
2021/05/09 02:40:47;;;;;;;0.45;0.20;;;;;;;9.03;92.31;100535.09;4875886;29;20067;-81
2021/05/09 02:43:17;;;;;;;0.30;0.30;;;;;;;9.13;92.88;100543.00;4889448;29;20054;-81
2021/05/09 02:45:44;;;;;;;0.20;0.20;;;;;;;9.08;91.87;100547.72;4877029;29;20043;-80
2021/05/09 02:48:11;;;;;;;0.30;0.20;;;;;;;9.00;92.52;100540.50;4905290;29;20044;-81
2021/05/09 02:50:38;;;;;;;0.30;0.30;;;;;;;9.05;92.35;100537.56;4897176;29;20075;-82
2021/05/09 02:53:04;;;;;;;0.20;0.20;;;;;;;8.95;92.89;100521.00;4879613;29;20056;-81
2021/05/09 02:55:30;;;;;;;0.20;0.20;;;;;;;8.97;92.34;100532.09;4879746;29;20050;-81
2021/05/09 02:57:56;;;;;;;0.25;0.25;;;;;;;8.90;92.58;100534.34;4894106;29;20085;-81
2021/05/09 03:00:22;;;;;;;0.20;0.20;;;;;;;8.78;92.37;100530.06;4908256;29;20422;-82
2021/05/09 03:02:49;;;;;;;0.20;0.20;;;;;;;8.74;92.11;100532.06;4894419;29;20049;-81
2021/05/09 03:05:20;;;;;;;0.20;0.20;;;;;;;8.70;92.79;100529.81;4873175;29;20112;-82
2021/05/09 03:07:47;;;;;;;0.30;0.30;;;;;;;8.81;93.24;100537.66;4896097;29;20492;-81
2021/05/09 03:10:13;;;;;;;0.30;0.30;;;;;;;8.87;93.17;100515.59;4881792;29;20048;-81
2021/05/09 03:12:39;;;;;;;0.28;0.25;;;;;;;9.01;93.38;100528.34;4894615;29;20923;-81
2021/05/09 03:15:06;;;;;;;0.30;0.30;;;;;;;9.01;92.85;100517.97;4895926;29;20048;-81
2021/05/09 03:17:33;;;;;;;0.20;0.20;;;;;;;9.08;92.35;100532.94;4911297;29;20440;-81
2021/05/09 03:19:59;;;;;;;0.30;0.30;;;;;;;9.01;92.00;100525.75;4910352;29;20109;-81
2021/05/09 03:22:24;;;;;;;0.20;0.20;;;;;;;9.06;92.14;100528.81;4883160;29;20051;-82
2021/05/09 03:24:50;;;;;;;0.20;0.20;;;;;;;9.06;92.09;100526.22;4895578;29;20060;-81
2021/05/09 03:27:16;;;;;;;0.20;0.20;;;;;;;8.97;92.02;100506.97;4894303;29;20791;-82
2021/05/09 03:29:41;;;;;;;0.20;0.20;;;;;;;9.12;91.25;100528.34;4909568;29;20052;-81
2021/05/09 03:32:07;;;;;;;0.20;0.20;;;;;;;9.13;91.69;100532.59;4895390;29;20048;-81
2021/05/09 03:34:32;;;;;;;0.60;0.20;;;;;;;9.06;92.03;100521.84;4927516;29;20071;-81
2021/05/09 03:36:58;;;;;;;0.38;0.30;;;;;;;9.09;91.61;100518.19;4880566;29;20465;-81
2021/05/09 03:39:23;;;;;;;0.20;0.20;;;;;;;9.20;91.23;100520.81;4896464;29;20461;-81
2021/05/09 03:41:49;;;;;;;0.30;0.30;;;;;;;9.19;91.15;100513.97;4895134;29;20561;-81
2021/05/09 03:44:14;;;;;;;0.20;0.20;;;;;;;9.21;91.23;100506.03;4879575;29;20116;-81
2021/05/09 03:46:40;;;;;;;0.40;0.20;;;;;;;9.26;91.15;100525.53;4883094;29;20865;-82
2021/05/09 03:49:06;;;;;;;0.52;0.30;;;;;;;9.18;90.86;100508.88;4879965;29;20470;-81
2021/05/09 03:51:31;;;;;;;0.20;0.20;;;;;;;9.33;90.65;100529.28;4864215;29;20052;-81
2021/05/09 03:53:57;;;;;;;0.40;0.40;;;;;;;9.32;90.99;100527.63;4911222;29;20049;-81
2021/05/09 03:56:22;;;;;;;1.00;0.40;;;;;;;9.32;90.40;100524.22;4895532;29;20056;-81
2021/05/09 03:58:48;;;;;;;0.40;0.40;;;;;;;9.28;90.57;100518.44;4911102;29;20059;-81
2021/05/09 04:01:13;;;;;;;0.30;0.30;;;;;;;9.29;90.53;100520.09;4910598;29;20422;-81
2021/05/09 04:03:39;;;;;;;0.35;0.30;;;;;;;9.30;90.46;100513.94;4881404;29;20406;-81
2021/05/09 04:06:05;;;;;;;0.30;0.30;;;;;;;9.24;90.44;100504.03;4897768;29;20058;-81
2021/05/09 04:08:30;;;;;;;0.30;0.30;;;;;;;9.12;90.21;100483.34;4896512;29;20048;-81
2021/05/09 04:10:58;;;;;;;0.70;0.38;;;;;;;9.22;90.38;100508.53;4878517;29;20051;-81
2021/05/09 04:13:24;;;;;;;0.40;0.40;;;;;;;9.15;90.42;100496.09;4912481;29;20052;-82
2021/05/09 04:15:50;;;;;;;0.30;0.30;;;;;;;9.36;90.53;100504.88;4911891;29;20047;-82
2021/05/09 04:18:16;;;;;;;0.30;0.30;;;;;;;9.36;90.05;100513.50;4878227;29;20052;-81
2021/05/09 04:20:42;;;;;;;0.20;0.20;;;;;;;9.12;90.57;100466.00;4891503;29;20043;-81
2021/05/09 04:23:08;;;;;;;0.30;0.30;;;;;;;9.35;90.69;100511.00;4908869;29;20131;-81
2021/05/09 04:25:34;;;;;;;0.30;0.30;;;;;;;9.34;90.20;100499.78;4894964;29;20083;-81
2021/05/09 04:27:59;;;;;;;0.22;0.22;;;;;;;9.38;89.83;100495.19;4878599;29;20101;-81
2021/05/09 04:30:25;;;;;;;0.35;0.30;;;;;;;9.44;90.11;100499.88;4910862;29;20044;-81
2021/05/09 04:33:01;;;;;;;0.40;0.40;;;;;;;9.58;89.77;100509.22;4905356;29;20051;-80
2021/05/09 04:35:28;;;;;;;0.28;0.28;;;;;;;9.67;89.44;100508.47;4895136;29;20044;-81
2021/05/09 04:37:54;;;;;;;0.30;0.30;;;;;;;9.74;88.73;100503.63;4894669;29;20217;-81
2021/05/09 04:40:20;;;;;;;0.30;0.30;;;;;;;9.80;88.43;100498.75;4877986;29;20108;-81
2021/05/09 04:42:45;;;;;;;0.25;0.25;;;;;;;9.83;88.48;100488.09;4913265;29;20044;-81
2021/05/09 04:45:12;;;;;;;0.30;0.30;;;;;;;10.08;88.18;100512.16;4893875;29;20066;-81
2021/05/09 04:47:37;;;;;;;0.30;0.28;;;;;;;10.09;87.77;100491.22;4890407;29;20052;-81
2021/05/09 04:50:04;;;;;;;0.22;0.22;;;;;;;10.25;87.40;100509.06;4913111;29;20055;-81
2021/05/09 04:52:30;;;;;;;0.20;0.20;;;;;;;10.40;86.16;100505.16;4896836;29;20052;-81
2021/05/09 04:54:55;;;;;;;0.20;0.20;;;;;;;10.42;86.60;100502.47;4880146;29;20056;-80
2021/05/09 04:57:21;;;;;;;0.30;0.30;;;;;;;10.48;86.53;100509.78;4897098;29;20148;-81
2021/05/09 04:59:46;;;;;;;0.25;0.20;;;;;;;10.47;85.98;100487.28;4901141;29;20056;-81
2021/05/09 05:02:12;;;;;;;0.30;0.30;;;;;;;10.52;85.99;100503.34;4926287;29;20048;-81
2021/05/09 05:04:37;;;;;;;0.20;0.20;;;;;;;10.52;86.05;100498.97;4902940;29;20495;-80
2021/05/09 05:07:03;;;;;;;0.30;0.30;;;;;;;10.54;85.64;100489.25;4899253;29;20559;-79
2021/05/09 05:09:28;;;;;;;0.22;0.22;;;;;;;10.69;85.38;100489.75;4895450;29;20052;-81
2021/05/09 05:11:56;;;;;;;0.20;0.20;;;;;;;10.59;84.92;100466.28;4877477;29;20128;-82
2021/05/09 05:14:22;;;;;;;0.20;0.20;;;;;;;10.83;85.62;100502.44;4892846;29;20800;-80
2021/05/09 05:16:47;;;;;;;0.30;0.30;;;;;;;10.80;84.77;100483.66;4895245;29;20040;-79
2021/05/09 05:19:13;;;;;;;0.20;0.20;;;;;;;10.90;84.52;100482.75;4909651;29;20129;-79
2021/05/09 05:21:38;;;;;;;0.20;0.20;;;;;;;11.00;84.25;100495.81;4898433;29;20036;-79
2021/05/09 05:24:04;;;;;;;0.30;0.30;;;;;;;11.05;84.22;100478.00;4893190;29;20400;-79
2021/05/09 05:26:30;;;;;;;0.10;0.10;;;;;;;11.11;84.21;100485.28;4895653;29;20134;-79
2021/05/09 05:28:55;;;;;;;0.20;0.20;;;;;;;11.17;83.96;100489.19;4896233;29;20768;-80
2021/05/09 05:31:21;;;;;;;0.20;0.20;;;;;;;11.37;82.81;100496.09;4883213;29;20059;-78
2021/05/09 05:33:46;;;;;;;0.10;0.10;;;;;;;11.40;83.00;100481.97;4894375;29;20063;-80
2021/05/09 05:36:12;;;;;;;0.30;0.30;;;;;;;11.46;83.23;100479.66;4892019;29;20108;-78
2021/05/09 05:38:38;;;;;;;0.20;0.20;;;;;;;11.60;82.71;100504.53;4895613;29;20056;-79
2021/05/09 05:41:04;;;;;;;0.47;0.32;;;;;;;11.55;82.42;100480.66;4878723;29;20040;-78
2021/05/09 05:43:31;;;;;;;0.20;0.20;;;;;;;11.58;82.01;100475.16;4895551;29;20048;-79
2021/05/09 05:45:59;;;;;;;0.30;0.30;;;;;;;11.86;81.83;100506.69;4895737;29;20574;-78
2021/05/09 05:48:25;;;;;;;0.20;0.20;;;;;;;11.92;81.99;100506.16;4911935;29;20048;-78
2021/05/09 05:50:52;;;;;;;0.20;0.20;;;;;;;12.04;81.83;100503.28;4901495;29;20503;-78
2021/05/09 05:53:23;;;;;;;0.10;0.10;;;;;;;12.07;80.79;100484.72;4891583;29;20487;-78
2021/05/09 05:55:50;;;;;;;0.20;0.20;;;;;;;12.12;80.90;100480.88;4877082;29;20051;-79
2021/05/09 05:58:16;;;;;;;0.20;0.20;;;;;;;12.20;80.05;100483.63;4895076;29;20757;-78
2021/05/09 06:00:42;;;;;;;0.20;0.20;;;;;;;12.25;80.78;100492.69;4908752;29;20518;-76
2021/05/09 06:03:08;;;;;;;0.20;0.20;;;;;;;12.34;80.50;100483.19;4909181;29;20040;-78
2021/05/09 06:05:34;;;;;;;0.10;0.10;;;;;;;12.28;81.14;100478.53;4922063;29;20070;-78
2021/05/09 06:07:59;;;;;;;0.20;0.20;;;;;;;12.33;80.44;100471.09;4897738;29;20052;-79
2021/05/09 06:10:25;;;;;;;0.20;0.20;;;;;;;12.35;79.73;100471.78;4909131;29;20538;-79
2021/05/09 06:12:53;;;;;;;0.10;0.10;;;;;;;12.40;80.62;100477.44;4878805;29;20040;-77
2021/05/09 06:15:19;;;;;;;0.20;0.20;;;;;;;12.39;80.01;100474.00;4876282;29;20690;-79
2021/05/09 06:17:44;;;;;;;0.20;0.20;;;;;;;12.46;80.66;100484.72;4909078;29;20044;-78
2021/05/09 06:20:11;;;;;;;0.20;0.20;;;;;;;12.59;80.78;100479.19;4893150;29;20048;-78
2021/05/09 06:22:37;;;;;;;0.20;0.20;;;;;;;12.66;79.69;100469.81;4878024;29;20057;-78
2021/05/09 06:25:04;;;;;;;0.10;0.10;;;;;;;12.91;78.51;100489.28;4891649;29;20460;-79
2021/05/09 06:27:30;;;;;;;0.15;0.15;;;;;;;12.92;79.01;100460.38;4892445;29;20495;-79
2021/05/09 06:29:55;;;;;;;0.20;0.20;;;;;;;12.93;77.12;100435.91;4889522;29;20051;-79
2021/05/09 06:32:21;;;;;;;0.20;0.20;;;;;;;13.28;77.04;100473.59;4879535;29;20052;-78
2021/05/09 06:34:46;;;;;;;0.13;0.13;;;;;;;13.54;76.64;100487.66;4922241;29;20044;-80
2021/05/09 06:37:12;;;;;;;0.20;0.20;;;;;;;13.57;76.42;100470.84;4899800;29;20047;-79
2021/05/09 06:39:39;;;;;;;0.20;0.20;;;;;;;13.77;76.43;100490.66;4898600;29;20435;-76
2021/05/09 06:42:06;;;;;;;0.20;0.20;;;;;;;13.79;75.86;100480.88;4900123;29;20104;-78
2021/05/09 06:44:35;;;;;;;0.15;0.15;;;;;;;13.84;75.75;100480.44;4931748;29;20064;-77
2021/05/09 06:47:01;;;;;;;0.20;0.20;;;;;;;13.93;74.57;100490.00;4919895;29;20052;-77
2021/05/09 06:49:28;;;;;;;0.20;0.20;;;;;;;13.84;74.42;100465.56;4897103;29;20225;-77
2021/05/09 06:51:56;;;;;;;0.20;0.20;;;;;;;13.98;75.52;100489.56;4900872;29;20419;-77
2021/05/09 06:54:22;;;;;;;0.20;0.20;;;;;;;14.09;74.63;100494.59;4898692;29;20404;-78
2021/05/09 06:56:49;;;;;;;0.20;0.20;;;;;;;14.07;74.41;100491.28;4900015;29;20095;-78
2021/05/09 06:59:16;;;;;;;0.20;0.20;;;;;;;14.13;73.39;100488.88;4883581;29;20052;-78
2021/05/09 07:01:42;;;;;;;0.20;0.20;;;;;;;14.21;75.08;100496.84;4898900;29;20111;-78
2021/05/09 07:04:08;;;;;;;0.25;0.25;;;;;;;14.27;74.59;100479.69;4932735;29;20056;-78
2021/05/09 07:06:34;;;;;;;0.38;0.20;;;;;;;14.39;73.27;100485.50;4914308;29;20491;-78
2021/05/09 07:09:00;;;;;;;0.20;0.20;;;;;;;14.56;72.63;100483.88;4881741;29;20051;-78
2021/05/09 07:11:27;;;;;;;0.25;0.22;;;;;;;14.65;71.92;100483.75;4883034;29;20352;-77
2021/05/09 07:13:52;;;;;;;1.88;0.20;;;;;;;14.67;72.53;100476.56;4916688;29;20048;-78
2021/05/09 07:16:19;;;;;;;0.20;0.20;;;;;;;14.68;72.24;100459.03;4897893;29;20071;-78
2021/05/09 07:18:45;;;;;;;0.20;0.20;;;;;;;14.77;71.16;100461.56;4885968;29;20518;-78
2021/05/09 07:21:14;;;;;;;0.10;0.10;;;;;;;14.86;71.83;100466.84;4914077;29;20054;-80
2021/05/09 07:23:46;;;;;;;0.25;0.25;;;;;;;14.88;72.16;100463.06;4914059;29;20032;-79
2021/05/09 07:26:12;;;;;;;0.10;0.10;;;;;;;15.02;72.44;100466.94;4916065;29;20055;-79
2021/05/09 07:28:37;;;;;;;0.17;0.17;;;;;;;15.06;71.08;100463.81;4901076;29;20063;-79
2021/05/09 07:31:03;;;;;;;0.10;0.10;;;;;;;14.93;70.73;100446.91;4900394;29;20056;-80
2021/05/09 07:33:29;;;;;;;0.30;0.20;;;;;;;15.01;70.62;100455.63;4897922;29;20051;-78
2021/05/09 07:35:54;;;;;;;0.20;0.20;;;;;;;15.03;70.85;100456.28;4915403;29;20048;-78
2021/05/09 07:38:20;;;;;;;0.20;0.20;;;;;;;15.02;70.01;100441.53;4911778;29;20060;-78
2021/05/09 07:40:45;;;;;;;0.10;0.10;;;;;;;15.03;70.61;100437.91;4902867;29;20051;-79
2021/05/09 07:43:13;;;;;;;0.17;0.17;;;;;;;15.14;70.55;100457.00;4919070;29;20090;-78
2021/05/09 07:45:38;;;;;;;0.10;0.10;;;;;;;15.16;70.38;100457.66;4898924;29;20056;-78
2021/05/09 07:48:04;;;;;;;0.10;0.10;;;;;;;15.23;69.70;100454.22;4931724;29;20060;-78
2021/05/09 07:50:30;;;;;;;0.20;0.20;;;;;;;15.18;69.75;100439.94;4880128;29;20044;-78
2021/05/09 07:52:59;;;;;;;0.20;0.20;;;;;;;15.21;69.77;100437.00;4878832;29;20052;-78
2021/05/09 07:55:25;;;;;;;0.20;0.20;;;;;;;15.31;69.10;100449.03;4894633;29;20059;-79
2021/05/09 07:57:50;;;;;;;0.20;0.20;;;;;;;15.32;70.06;100440.16;4887406;29;20508;-78
2021/05/09 08:00:17;;;;;;;0.20;0.20;;;;;;;15.42;70.48;100442.66;4896328;29;20056;-79
2021/05/09 08:02:44;;;;;;;0.10;0.10;;;;;;;15.44;70.28;100419.72;4925119;29;20044;-78
2021/05/09 08:05:10;;;;;;;0.10;0.10;;;;;;;15.58;69.22;100418.25;4889137;29;20048;-80
2021/05/09 08:07:51;;;;;;;0.20;0.20;;;;;;;15.77;68.56;100412.72;4892943;29;20414;-77
2021/05/09 08:10:17;;;;;;;0.10;0.10;;;;;;;15.84;68.04;100397.16;4878639;29;20040;-78
2021/05/09 08:12:42;;;;;;;0.15;0.15;;;;;;;15.92;67.71;100394.53;4909999;29;20582;-78
2021/05/09 08:15:09;;;;;;;0.10;0.10;;;;;;;16.04;67.25;100405.53;4892471;29;20422;-78
2021/05/09 08:17:34;;;;;;;0.13;0.13;;;;;;;16.05;67.75;100392.22;4894633;29;20624;-77
2021/05/09 08:20:00;;;;;;;0.20;0.20;;;;;;;16.19;66.38;100412.56;4893159;29;20060;-77
2021/05/09 08:22:26;;;;;;;0.13;0.13;;;;;;;16.27;67.40;100403.84;4925717;29;20052;-79
2021/05/09 08:24:51;;;;;;;0.15;0.15;;;;;;;16.45;65.19;100393.16;4893005;29;20554;-77
2021/05/09 08:27:17;;;;;;;0.20;0.20;;;;;;;16.72;66.26;100395.41;4878138;29;20056;-77
2021/05/09 08:29:42;;;;;;;0.20;0.20;;;;;;;16.88;64.38;100376.97;4909437;29;20104;-76
2021/05/09 08:32:08;;;;;;;0.10;0.10;;;;;;;17.00;63.94;100366.84;4898259;29;20044;-78
2021/05/09 08:34:35;;;;;;;0.10;0.10;;;;;;;17.12;62.50;100362.84;4911316;29;20052;-77
2021/05/09 08:37:01;;;;;;;0.10;0.10;;;;;;;17.26;63.54;100381.53;4911389;29;20068;-77
2021/05/09 08:39:26;;;;;;;0.17;0.17;;;;;;;17.46;62.65;100386.19;4877675;29;20138;-78
2021/05/09 08:41:52;;;;;;;0.10;0.10;;;;;;;17.62;61.74;100390.50;4896265;29;20059;-78
2021/05/09 08:44:18;;;;;;;0.10;0.10;;;;;;;17.75;61.67;100385.50;4877643;29;20095;-77
2021/05/09 08:46:46;;;;;;;0.17;0.17;;;;;;;17.89;61.50;100376.00;4924578;29;20040;-78
2021/05/09 08:49:16;;;;;;;0.10;0.10;;;;;;;18.12;60.96;100397.03;4907748;29;20079;-75
2021/05/09 08:51:43;;;;;;;0.17;0.13;;;;;;;18.28;58.66;100393.44;4899408;29;20499;-75
2021/05/09 08:54:08;;;;;;;0.17;0.17;;;;;;;18.38;59.54;100386.09;4896198;29;20126;-77
2021/05/09 08:56:37;;;;;;;0.10;0.10;;;;;;;18.45;59.23;100380.91;4894849;29;20163;-79
2021/05/09 08:59:03;;;;;;;0.10;0.10;;;;;;;18.59;57.71;100383.56;4895909;29;20352;-79
2021/05/09 09:01:30;;;;;;;0.10;0.10;;;;;;;18.67;58.57;100354.50;4895814;29;20062;-79
2021/05/09 09:03:56;;;;;;;0.10;0.10;;;;;;;18.86;56.83;100368.13;4911141;29;20107;-78
2021/05/09 09:06:40;;;;;;;0.10;0.10;;;;;;;19.01;54.08;100369.69;4912441;29;20048;-79
2021/05/09 09:09:06;;;;;;;0.10;0.10;;;;;;;19.22;54.45;100357.56;4911616;29;20080;-79
2021/05/09 09:11:32;;;;;;;0.20;0.20;;;;;;;19.63;51.96;100365.72;4898954;29;20073;-80
2021/05/09 09:14:27;;;;;;;0.10;0.10;;;;;;;20.02;53.34;100370.53;4912263;29;20044;-82
2021/05/09 09:17:16;;;;;;;0.43;0.20;;;;;;;20.13;51.17;100364.72;4880017;29;20524;-79
2021/05/09 09:20:06;;;;;;;0.10;0.10;;;;;;;19.86;53.00;100378.72;4910402;29;20047;-79
2021/05/09 09:22:52;;;;;;;0.10;0.10;;;;;;;19.56;53.12;100381.50;4897839;29;20514;-80
2021/05/09 09:25:20;;;;;;;0.10;0.10;;;;;;;19.30;53.48;100389.13;4908725;29;20075;-81
2021/05/09 09:27:48;;;;;;;0.08;0.08;;;;;;;19.04;53.39;100418.69;4910348;29;20044;-79
2021/05/09 09:30:16;;;;;;;0.00;0.00;;;;;;;18.81;54.18;100447.78;4915349;29;20574;-78
2021/05/09 09:33:01;;;;;;;0.08;0.08;;;;;;;18.71;54.67;100494.72;4876536;29;20060;-78
2021/05/09 09:35:30;;;;;;;0.10;0.10;;;;;;;18.41;54.81;100480.63;4909341;29;20380;-79
2021/05/09 09:37:56;;;;;;;0.10;0.10;;;;;;;18.19;56.64;100492.03;4890677;29;20456;-78
2021/05/09 09:40:22;;;;;;;0.10;0.10;;;;;;;17.99;56.46;100505.69;4892996;29;20192;-77
2021/05/09 09:42:48;;;;;;;0.10;0.10;;;;;;;17.88;58.31;100505.25;4890210;29;20050;-77
2021/05/09 09:45:22;;;;;;;0.20;0.20;;;;;;;17.60;62.65;100465.41;4921766;29;20781;-77
2021/05/09 09:47:55;;;;;;;0.17;0.17;;;;;;;17.34;63.82;100468.31;4905937;29;20052;-77
2021/05/09 09:50:46;;;;;;;0.10;0.10;;;;;;;17.18;64.99;100477.09;4908987;29;20044;-76
2021/05/09 09:53:30;;;;;;;0.10;0.10;;;;;;;16.86;65.44;100447.28;4890953;29;20112;-77
2021/05/09 09:56:07;;;;;;;0.10;0.10;;;;;;;16.69;68.38;100434.34;4889392;29;20456;-78
2021/05/09 09:58:51;;;;;;;0.50;0.32;;;;;;;16.70;70.71;100444.72;4890493;29;20052;-77
2021/05/09 10:01:30;;;;;;;0.10;0.10;;;;;;;16.57;72.74;100415.47;4890713;29;20072;-77
2021/05/09 10:03:58;;;;;;;0.20;0.20;;;;;;;16.39;73.16;100402.53;4888588;29;20060;-77
2021/05/09 10:06:25;;;;;;;0.10;0.10;;;;;;;16.45;76.20;100372.94;4896956;29;20515;-78
2021/05/09 10:08:52;;;;;;;0.20;0.20;;;;;;;16.35;77.75;100355.75;4875688;29;20062;-76
2021/05/09 10:11:18;;;;;;;0.10;0.10;;;;;;;16.36;77.73;100337.19;4890122;29;20170;-76
2021/05/09 10:13:46;;;;;;;0.20;0.20;;;;;;;16.32;76.27;100304.31;4910221;29;20774;-77
2021/05/09 10:16:12;;;;;;;0.20;0.20;;;;;;;16.44;73.66;100302.16;4906749;29;20063;-77
2021/05/09 10:18:47;;;;;;;0.20;0.20;;;;;;;16.66;72.11;100313.72;4908859;29;20108;-76
2021/05/09 10:21:13;;;;;;;0.10;0.10;;;;;;;16.97;69.18;100311.16;4894881;29;20075;-78
2021/05/09 10:24:07;;;;;;;0.10;0.10;;;;;;;17.32;68.68;100300.06;4892445;29;20088;-77
2021/05/09 10:26:42;;;;;;;0.20;0.20;;;;;;;17.63;66.28;100302.63;4896780;29;20060;-79
2021/05/09 10:29:08;;;;;;;0.17;0.17;;;;;;;18.03;65.63;100300.63;4904267;29;20482;-77
2021/05/09 10:31:33;;;;;;;0.10;0.10;;;;;;;18.48;62.00;100278.53;4877326;29;20044;-78
2021/05/09 10:33:59;;;;;;;0.20;0.20;;;;;;;19.01;58.95;100293.19;4876073;29;20056;-81
2021/05/09 10:36:24;;;;;;;0.10;0.10;;;;;;;19.40;58.25;100285.88;4876017;29;20056;-79
2021/05/09 10:39:11;;;;;;;0.10;0.10;;;;;;;19.76;57.50;100278.69;4891792;29;20151;-78
2021/05/09 10:41:59;;;;;;;0.10;0.10;;;;;;;20.14;57.66;100289.69;4910545;29;20052;-79
2021/05/09 10:44:37;;;;;;;0.30;0.20;;;;;;;20.46;54.30;100293.53;4907399;29;20542;-80
2021/05/09 10:47:12;;;;;;;0.10;0.10;;;;;;;20.68;55.42;100275.75;4894302;29;20084;-79
2021/05/09 10:49:57;;;;;;;0.10;0.10;;;;;;;20.84;57.52;100302.88;4912231;29;20107;-80
2021/05/09 10:52:50;;;;;;;0.10;0.10;;;;;;;20.94;56.52;100298.81;4898324;29;20047;-77
2021/05/09 10:55:44;;;;;;;0.10;0.10;;;;;;;21.00;55.94;100292.69;4906741;29;20063;-77
2021/05/09 10:58:12;;;;;;;0.10;0.10;;;;;;;21.39;54.93;100268.16;4912878;29;20127;-77
2021/05/09 11:00:56;;;;;;;0.17;0.17;;;;;;;21.53;52.62;100292.81;4907066;29;20570;-77
2021/05/09 11:03:37;;;;;;;0.10;0.10;;;;;;;21.42;52.70;100288.13;4910914;29;20406;-77
2021/05/09 11:06:07;;;;;;;0.20;0.20;;;;;;;21.64;55.30;100300.16;4890393;29;20248;-75
2021/05/09 11:08:41;;;;;;;0.10;0.10;;;;;;;21.42;51.94;100296.09;4906765;29;20135;-76
2021/05/09 11:11:07;;;;;;;0.30;0.17;;;;;;;21.29;52.00;100296.06;4919271;29;20049;-76
2021/05/09 11:13:33;;;;;;;0.17;0.17;;;;;;;21.35;52.06;100295.25;4909169;29;20131;-76
2021/05/09 11:16:18;;;;;;;0.10;0.10;;;;;;;21.30;47.26;100279.97;4895008;29;20126;-77
2021/05/09 11:18:44;;;;;;;0.10;0.10;;;;;;;21.68;49.13;100309.31;4921505;29;20472;-77
2021/05/09 11:21:09;;;;;;;0.10;0.10;;;;;;;21.70;48.48;100280.78;4875946;29;20119;-76
2021/05/09 11:23:44;;;;;;;1.20;0.10;;;;;;;22.30;48.23;100262.97;4892293;29;20486;-76
2021/05/09 11:26:31;;;;;;;0.10;0.10;;;;;;;23.03;47.12;100269.78;4910146;29;20052;-77
2021/05/09 11:29:14;;;;;;;0.10;0.10;;;;;;;23.01;43.94;100277.97;4914252;29;20152;-75
2021/05/09 11:31:43;;;;;;;0.10;0.10;;;;;;;22.71;42.11;100255.63;4930121;29;20051;-78
2021/05/09 11:34:09;;;;;;;0.05;0.05;;;;;;;23.32;42.01;100263.03;4912202;29;20043;-76